createdAt,value
2018-06-17T00:00:01.616Z,15.40
2018-06-17T00:02:29.902Z,15.40
2018-06-17T00:04:58.374Z,15.40
2018-06-17T00:07:26.733Z,15.40
2018-06-17T00:09:55.286Z,15.40
2018-06-17T00:12:23.601Z,15.40
2018-06-17T00:14:51.881Z,15.40
2018-06-17T00:17:20.168Z,15.30
2018-06-17T00:19:48.743Z,15.30
2018-06-17T00:22:17.051Z,15.30
2018-06-17T00:24:45.668Z,15.30
2018-06-17T00:27:13.987Z,15.30
2018-06-17T00:29:42.269Z,15.30
2018-06-17T00:32:10.541Z,15.30
2018-06-17T00:34:38.905Z,15.30
2018-06-17T00:37:07.223Z,15.40
2018-06-17T00:39:35.560Z,15.40
2018-06-17T00:42:04.333Z,15.40
2018-06-17T00:44:32.841Z,15.40
2018-06-17T00:47:01.136Z,15.40
2018-06-17T00:49:29.588Z,15.50
2018-06-17T00:51:57.951Z,15.50
2018-06-17T00:54:26.313Z,15.60
2018-06-17T00:57:05.970Z,15.60
2018-06-17T00:59:34.297Z,15.70
2018-06-17T01:02:02.597Z,15.60
2018-06-17T01:04:30.965Z,15.70
2018-06-17T01:06:59.254Z,15.70
2018-06-17T01:09:27.561Z,15.70
2018-06-17T01:11:55.828Z,15.70
2018-06-17T01:14:24.112Z,15.80
2018-06-17T01:16:52.439Z,15.70
2018-06-17T01:19:20.700Z,15.80
2018-06-17T01:21:48.985Z,15.80
2018-06-17T01:24:17.308Z,15.80
2018-06-17T01:26:45.623Z,15.80
2018-06-17T01:29:14.005Z,15.90
2018-06-17T01:31:42.272Z,15.90
2018-06-17T01:34:10.586Z,15.90
2018-06-17T01:36:38.906Z,15.90
2018-06-17T01:39:08.132Z,15.90
2018-06-17T01:41:36.451Z,15.90
2018-06-17T01:44:04.788Z,15.90
2018-06-17T01:46:33.133Z,15.90
2018-06-17T01:51:29.950Z,15.90
2018-06-17T01:53:58.299Z,15.80
2018-06-17T01:56:26.808Z,15.90
2018-06-17T01:58:55.146Z,15.90
2018-06-17T02:01:23.434Z,15.80
2018-06-17T02:06:30.809Z,15.90
2018-06-17T02:09:04.588Z,15.90
2018-06-17T02:11:41.649Z,15.90
2018-06-17T02:14:15.208Z,15.90
2018-06-17T02:16:43.643Z,15.90
2018-06-17T02:19:12.088Z,15.90
2018-06-17T02:24:09.303Z,15.90
2018-06-17T02:26:37.620Z,15.90
2018-06-17T02:29:05.991Z,15.80
2018-06-17T02:31:34.303Z,15.80
2018-06-17T02:34:02.636Z,15.80
2018-06-17T02:36:30.934Z,15.80
2018-06-17T02:38:59.215Z,15.80
2018-06-17T02:41:27.602Z,15.80
2018-06-17T02:43:55.885Z,15.80
2018-06-17T02:46:29.568Z,15.80
2018-06-17T02:49:03.177Z,15.70
2018-06-17T02:53:43.183Z,15.70
2018-06-17T02:56:11.507Z,15.70
2018-06-17T02:58:39.843Z,15.70
2018-06-17T03:01:08.144Z,15.60
2018-06-17T03:03:36.466Z,15.60
2018-06-17T03:06:04.801Z,15.60
2018-06-17T03:08:33.095Z,15.60
2018-06-17T03:11:01.405Z,15.60
2018-06-17T03:15:57.796Z,15.60
2018-06-17T03:18:26.095Z,15.60
2018-06-17T03:20:54.400Z,15.50
2018-06-17T03:23:22.702Z,15.50
2018-06-17T03:25:56.309Z,15.50
2018-06-17T03:28:30.052Z,15.50
2018-06-17T03:31:03.695Z,15.50
2018-06-17T03:33:37.381Z,15.50
2018-06-17T03:36:11.263Z,15.50
2018-06-17T03:38:40.933Z,15.40
2018-06-17T03:41:09.714Z,15.30
2018-06-17T03:43:38.376Z,15.30
2018-06-17T03:46:06.798Z,15.30
2018-06-17T03:51:03.720Z,15.20
2018-06-17T03:53:32.327Z,15.20
2018-06-17T03:56:00.995Z,15.30
2018-06-17T03:58:29.278Z,15.30
2018-06-17T04:00:57.560Z,15.30
2018-06-17T04:03:25.874Z,15.30
2018-06-17T04:05:54.170Z,15.40
2018-06-17T04:08:22.429Z,15.40
2018-06-17T04:10:50.695Z,15.40
2018-06-17T04:13:18.970Z,15.50
2018-06-17T04:15:47.607Z,15.50
2018-06-17T04:18:15.967Z,15.50
2018-06-17T04:20:44.244Z,15.50
2018-06-17T04:23:12.531Z,15.50
2018-06-17T04:25:40.864Z,15.50
2018-06-17T04:28:09.324Z,15.50
2018-06-17T04:30:37.646Z,15.50
2018-06-17T04:33:05.927Z,15.60
2018-06-17T04:35:34.567Z,15.60
2018-06-17T04:38:02.862Z,15.60
2018-06-17T04:40:31.110Z,15.60
2018-06-17T04:42:59.413Z,15.70
2018-06-17T04:47:55.843Z,15.80
2018-06-17T04:50:24.095Z,15.80
2018-06-17T04:52:52.773Z,15.80
2018-06-17T04:55:21.118Z,15.90
2018-06-17T04:57:49.358Z,15.90
2018-06-17T05:00:17.625Z,15.90
2018-06-17T05:02:45.890Z,15.90
2018-06-17T05:05:14.174Z,16.00
2018-06-17T05:07:42.475Z,16.00
2018-06-17T05:10:10.723Z,16.00
2018-06-17T05:12:39.023Z,16.00
2018-06-17T05:15:07.325Z,16.10
2018-06-17T05:17:35.578Z,16.10
2018-06-17T05:20:03.884Z,16.00
2018-06-17T05:22:32.165Z,16.00
2018-06-17T05:25:00.443Z,15.90
2018-06-17T05:27:28.731Z,15.90
2018-06-17T05:29:57.318Z,15.90
2018-06-17T05:32:25.620Z,15.90
2018-06-17T05:34:53.934Z,16.00
2018-06-17T05:39:50.255Z,16.00
2018-06-17T05:42:18.681Z,16.10
2018-06-17T05:44:46.956Z,16.20
2018-06-17T05:47:15.265Z,16.40
2018-06-17T05:49:43.715Z,16.40
2018-06-17T05:52:12.212Z,16.40
2018-06-17T05:57:08.488Z,16.30
2018-06-17T05:59:36.771Z,16.30
2018-06-17T06:02:05.415Z,16.30
2018-06-17T06:04:34.097Z,16.30
2018-06-17T06:07:02.353Z,16.30
2018-06-17T06:09:30.633Z,16.30
2018-06-17T06:11:58.888Z,16.40
2018-06-17T06:14:27.156Z,16.40
2018-06-17T06:16:55.464Z,16.60
2018-06-17T06:19:23.709Z,16.70
2018-06-17T06:21:51.987Z,16.90
2018-06-17T06:24:20.242Z,16.90
2018-06-17T06:26:48.502Z,16.80
2018-06-17T06:29:16.792Z,16.80
2018-06-17T06:31:45.220Z,16.90
2018-06-17T06:34:13.572Z,17.00
2018-06-17T06:36:41.838Z,17.00
2018-06-17T06:39:11.167Z,17.00
2018-06-17T06:41:39.503Z,17.00
2018-06-17T06:44:07.795Z,17.00
2018-06-17T06:49:05.421Z,17.20
2018-06-17T06:51:34.581Z,17.10
2018-06-17T06:54:02.856Z,17.00
2018-06-17T06:56:31.145Z,17.00
2018-06-17T06:59:00.012Z,16.90
2018-06-17T07:01:39.699Z,17.00
2018-06-17T07:04:19.247Z,17.10
2018-06-17T07:06:58.851Z,17.00
2018-06-17T07:09:38.561Z,17.00
2018-06-17T07:12:06.912Z,17.00
2018-06-17T07:14:35.166Z,16.80
2018-06-17T07:17:14.788Z,16.90
2018-06-17T07:19:43.062Z,16.80
2018-06-17T07:22:11.360Z,16.80
2018-06-17T07:24:40.205Z,16.90
2018-06-17T07:27:19.861Z,16.90
2018-06-17T07:29:48.380Z,17.00
2018-06-17T07:32:16.654Z,17.00
2018-06-17T07:34:44.969Z,17.10
2018-06-17T07:37:13.232Z,17.00
2018-06-17T07:40:53.994Z,16.80
2018-06-17T07:43:22.415Z,17.00
2018-06-17T07:45:51.276Z,17.00
2018-06-17T07:49:40.564Z,17.10
2018-06-17T07:52:21.220Z,17.20
2018-06-17T07:54:54.071Z,17.20
2018-06-17T07:57:24.264Z,17.20
2018-06-17T08:02:21.970Z,17.40
2018-06-17T08:04:50.588Z,17.50
2018-06-17T08:07:20.687Z,17.60
2018-06-17T08:09:49.627Z,17.70
2018-06-17T08:12:18.784Z,17.70
2018-06-17T08:14:47.648Z,17.80
2018-06-17T08:17:16.545Z,18.00
2018-06-17T08:19:45.417Z,18.00
2018-06-17T08:22:14.327Z,18.00
2018-06-17T08:24:43.146Z,18.30
2018-06-17T08:27:12.015Z,18.10
2018-06-17T08:29:40.935Z,17.90
2018-06-17T08:32:10.095Z,17.90
2018-06-17T08:34:38.970Z,18.00
2018-06-17T08:37:07.834Z,18.00
2018-06-17T08:39:36.681Z,18.10
2018-06-17T08:42:06.181Z,18.10
2018-06-17T08:44:35.067Z,18.20
2018-06-17T08:47:05.533Z,18.20
2018-06-17T08:52:02.949Z,17.80
2018-06-17T08:54:31.833Z,17.60
2018-06-17T08:57:00.702Z,17.50
2018-06-17T08:59:29.513Z,17.70
2018-06-17T09:01:58.400Z,17.70
2018-06-17T09:04:27.231Z,17.60
2018-06-17T09:06:56.082Z,17.70
2018-06-17T09:09:24.908Z,17.80
2018-06-17T09:11:53.790Z,18.00
2018-06-17T09:14:22.643Z,18.10
2018-06-17T09:16:51.501Z,18.10
2018-06-17T09:19:20.350Z,18.10
2018-06-17T09:21:49.422Z,18.00
2018-06-17T09:24:18.286Z,17.80
2018-06-17T09:26:47.106Z,17.70
2018-06-17T09:29:15.950Z,17.90
2018-06-17T09:31:44.877Z,18.10
2018-06-17T09:34:14.006Z,18.10
2018-06-17T09:36:42.883Z,18.20
2018-06-17T09:39:11.987Z,18.40
2018-06-17T09:41:40.823Z,18.50
2018-06-17T09:44:09.657Z,18.60
2018-06-17T09:46:38.496Z,18.60
2018-06-17T09:49:07.432Z,18.60
2018-06-17T09:51:36.308Z,18.50
2018-06-17T09:54:05.354Z,18.10
2018-06-17T09:56:34.222Z,18.00
2018-06-17T09:59:03.094Z,18.00
2018-06-17T10:01:32.053Z,18.10
2018-06-17T10:04:00.798Z,18.10
2018-06-17T10:06:29.678Z,18.20
2018-06-17T10:08:58.636Z,18.40
2018-06-17T10:11:27.657Z,18.50
2018-06-17T10:13:56.461Z,18.60
2018-06-17T10:16:25.351Z,18.50
2018-06-17T10:18:54.159Z,18.40
2018-06-17T10:21:22.987Z,18.50
2018-06-17T10:23:51.820Z,18.80
2018-06-17T10:26:20.668Z,19.00
2018-06-17T10:28:49.532Z,19.20
2018-06-17T10:31:18.367Z,19.10
2018-06-17T10:33:47.239Z,19.20
2018-06-17T10:36:16.097Z,19.30
2018-06-17T10:38:44.978Z,19.40
2018-06-17T10:41:13.814Z,19.50
2018-06-17T10:43:42.704Z,19.40
2018-06-17T10:46:11.530Z,19.50
2018-06-17T10:48:40.368Z,19.50
2018-06-17T10:51:09.198Z,19.50
2018-06-17T10:53:38.044Z,19.40
2018-06-17T10:56:06.962Z,19.50
2018-06-17T10:58:35.959Z,19.60
2018-06-17T11:01:04.799Z,19.50
2018-06-17T11:03:33.687Z,19.50
2018-06-17T11:06:02.587Z,19.40
2018-06-17T11:08:31.439Z,19.60
2018-06-17T11:11:00.294Z,19.70
2018-06-17T11:13:29.143Z,19.70
2018-06-17T11:15:57.989Z,19.60
2018-06-17T11:18:26.816Z,19.70
2018-06-17T11:20:55.808Z,19.70
2018-06-17T11:23:24.641Z,19.70
2018-06-17T11:25:53.459Z,19.70
2018-06-17T11:28:22.288Z,19.90
2018-06-17T11:30:51.091Z,20.00
2018-06-17T11:35:48.570Z,19.80
2018-06-17T11:38:17.399Z,19.60
2018-06-17T11:40:46.240Z,19.40
2018-06-17T11:43:15.096Z,19.40
2018-06-17T11:45:45.645Z,19.60
2018-06-17T11:48:14.521Z,20.00
2018-06-17T11:50:43.494Z,20.40
2018-06-17T11:53:12.442Z,20.60
2018-06-17T11:55:41.338Z,20.50
2018-06-17T11:58:10.201Z,20.50
2018-06-17T12:00:39.116Z,20.70
2018-06-17T12:03:07.933Z,20.60
2018-06-17T12:05:36.662Z,20.70
2018-06-17T12:08:05.721Z,20.90
2018-06-17T12:10:34.640Z,20.70
2018-06-17T12:15:32.117Z,20.80
2018-06-17T12:20:29.523Z,20.70
2018-06-17T12:22:58.480Z,20.80
2018-06-17T12:25:27.417Z,20.60
2018-06-17T12:27:56.437Z,20.80
2018-06-17T12:30:25.270Z,21.30
2018-06-17T12:32:54.149Z,21.40
2018-06-17T12:35:22.968Z,21.20
2018-06-17T12:37:51.955Z,21.20
2018-06-17T12:40:20.824Z,21.10
2018-06-17T12:42:49.689Z,20.80
2018-06-17T12:45:18.526Z,20.60
2018-06-17T12:47:47.642Z,20.70
2018-06-17T12:50:16.506Z,20.80
2018-06-17T12:52:45.391Z,20.90
2018-06-17T12:55:14.220Z,21.10
2018-06-17T12:57:43.090Z,21.30
2018-06-17T13:00:12.564Z,20.90
2018-06-17T13:02:41.548Z,20.90
2018-06-17T13:05:10.162Z,21.00
2018-06-17T13:07:39.053Z,20.80
2018-06-17T13:10:08.230Z,20.30
2018-06-17T13:12:37.117Z,20.10
2018-06-17T13:15:06.117Z,20.20
2018-06-17T13:17:34.981Z,20.10
2018-06-17T13:20:03.884Z,20.00
2018-06-17T13:22:32.717Z,20.00
2018-06-17T13:27:30.471Z,20.00
2018-06-17T13:29:59.672Z,20.20
2018-06-17T13:34:57.475Z,20.40
2018-06-17T13:37:26.399Z,20.60
2018-06-17T13:39:55.473Z,20.70
2018-06-17T13:44:52.896Z,20.30
2018-06-17T13:47:21.939Z,20.20
2018-06-17T13:49:51.996Z,20.00
2018-06-17T13:52:20.818Z,19.80
2018-06-17T13:54:49.645Z,19.80
2018-06-17T13:57:18.496Z,20.00
2018-06-17T13:59:47.394Z,19.90
2018-06-17T14:02:16.262Z,19.70
2018-06-17T14:04:45.216Z,19.90
2018-06-17T14:07:14.075Z,19.90
2018-06-17T14:09:42.969Z,20.00
2018-06-17T14:12:11.955Z,20.00
2018-06-17T14:14:40.839Z,19.80
2018-06-17T14:17:09.777Z,19.80
2018-06-17T14:19:38.679Z,20.00
2018-06-17T14:22:07.577Z,19.70
2018-06-17T14:24:36.503Z,19.80
2018-06-17T14:27:05.473Z,20.10
2018-06-17T14:29:34.741Z,20.10
2018-06-17T14:32:03.709Z,20.10
2018-06-17T14:34:32.645Z,20.00
2018-06-17T14:37:01.651Z,20.00
2018-06-17T14:39:30.685Z,19.90
2018-06-17T14:42:05.084Z,19.90
2018-06-17T14:44:39.407Z,19.90
2018-06-17T14:47:13.551Z,20.00
2018-06-17T14:49:47.709Z,20.10
2018-06-17T14:52:21.956Z,20.10
2018-06-17T14:54:50.839Z,20.20
2018-06-17T14:57:19.695Z,20.40
2018-06-17T14:59:48.546Z,20.30
2018-06-17T15:02:17.435Z,20.10
2018-06-17T15:04:46.040Z,20.00
2018-06-17T15:07:15.011Z,19.90
2018-06-17T15:12:13.205Z,19.70
2018-06-17T15:14:42.034Z,19.60
2018-06-17T15:17:10.861Z,19.40
2018-06-17T15:19:39.727Z,19.00
2018-06-17T15:22:08.603Z,18.70
2018-06-17T15:24:37.467Z,18.90
2018-06-17T15:27:06.377Z,19.00
2018-06-17T15:29:35.244Z,18.90
2018-06-17T15:32:09.535Z,18.90
2018-06-17T15:39:50.615Z,19.50
2018-06-17T15:42:19.476Z,19.90
2018-06-17T15:44:48.425Z,20.50
2018-06-17T15:47:17.738Z,20.80
2018-06-17T15:49:46.648Z,21.10
2018-06-17T15:52:15.537Z,21.50
2018-06-17T15:54:44.442Z,21.90
2018-06-17T15:57:13.373Z,22.10
2018-06-17T16:02:11.279Z,21.90
2018-06-17T16:04:39.868Z,21.80
2018-06-17T16:07:08.824Z,21.60
2018-06-17T16:09:37.769Z,21.70
2018-06-17T16:12:12.289Z,21.80
2018-06-17T16:16:54.153Z,22.00
2018-06-17T16:19:28.743Z,22.00
2018-06-17T16:21:57.955Z,22.20
2018-06-17T16:24:26.885Z,22.60
2018-06-17T16:26:55.869Z,22.70
2018-06-17T16:29:24.730Z,22.60
2018-06-17T16:31:53.727Z,21.60
2018-06-17T16:34:22.748Z,21.20
2018-06-17T16:36:51.556Z,20.80
2018-06-17T16:39:20.450Z,20.40
2018-06-17T16:41:49.272Z,20.00
2018-06-17T16:44:18.101Z,19.50
2018-06-17T16:46:46.943Z,19.10
2018-06-17T16:49:15.823Z,19.10
2018-06-17T16:51:50.175Z,19.00
2018-06-17T16:54:24.464Z,18.90
2018-06-17T16:56:58.641Z,18.90
2018-06-17T16:59:32.800Z,18.70
2018-06-17T17:02:01.812Z,18.60
2018-06-17T17:04:30.407Z,18.70
2018-06-17T17:06:59.234Z,18.60
2018-06-17T17:09:28.063Z,18.70
2018-06-17T17:14:25.546Z,18.70
2018-06-17T17:21:51.833Z,18.60
2018-06-17T17:24:20.726Z,18.50
2018-06-17T17:26:49.597Z,18.40
2018-06-17T17:29:19.288Z,18.40
2018-06-17T17:31:53.968Z,18.40
2018-06-17T17:34:28.322Z,18.50
2018-06-17T17:37:02.879Z,18.30
2018-06-17T17:39:37.023Z,18.30
2018-06-17T17:44:39.745Z,18.10
2018-06-17T17:47:13.845Z,18.10
2018-06-17T17:49:42.748Z,18.10
2018-06-17T17:52:11.672Z,18.20
2018-06-17T17:54:40.884Z,18.20
2018-06-17T17:57:09.737Z,18.30
2018-06-17T17:59:38.641Z,18.20
2018-06-17T18:02:07.538Z,18.20
2018-06-17T18:04:36.169Z,18.10
2018-06-17T18:07:05.069Z,18.00
2018-06-17T18:09:34.195Z,18.00
2018-06-17T18:12:03.296Z,18.00
2018-06-17T18:17:09.448Z,17.90
2018-06-17T18:19:42.210Z,17.80
2018-06-17T18:22:11.104Z,17.90
2018-06-17T18:24:39.932Z,17.90
2018-06-17T18:27:20.071Z,17.90
2018-06-17T18:29:54.789Z,17.90
2018-06-17T18:32:29.471Z,17.80
2018-06-17T18:35:03.997Z,17.60
2018-06-17T18:37:32.962Z,17.60
2018-06-17T18:40:01.809Z,17.50
2018-06-17T18:42:30.702Z,17.50
2018-06-17T18:44:59.560Z,17.40
2018-06-17T18:47:29.078Z,17.40
2018-06-17T18:49:58.174Z,17.30
2018-06-17T18:52:27.243Z,17.30
2018-06-17T18:54:55.741Z,17.30
2018-06-17T18:57:24.255Z,17.20
2018-06-17T18:59:53.087Z,17.30
2018-06-17T19:02:23.860Z,17.20
2018-06-17T19:04:52.343Z,17.20
2018-06-17T19:07:23.014Z,17.10
2018-06-17T19:09:57.324Z,17.10
2018-06-17T19:12:31.023Z,17.10
2018-06-17T19:15:04.618Z,17.00
2018-06-17T19:18:38.894Z,17.00
2018-06-17T19:21:07.202Z,16.90
2018-06-17T19:23:35.479Z,16.80
2018-06-17T19:26:04.608Z,16.70
2018-06-17T19:31:00.999Z,16.80
2018-06-17T19:33:29.342Z,16.70
2018-06-17T19:35:57.746Z,16.70
2018-06-17T19:38:27.277Z,16.70
2018-06-17T19:40:55.688Z,16.60
2018-06-17T19:43:24.309Z,16.60
2018-06-17T19:45:52.771Z,16.60
2018-06-17T19:48:21.354Z,16.60
2018-06-17T19:50:55.020Z,16.60
2018-06-17T19:53:30.714Z,16.60
2018-06-17T19:56:04.767Z,16.60
2018-06-17T19:58:38.800Z,16.50
2018-06-17T20:01:07.526Z,16.50
2018-06-17T20:03:36.023Z,16.40
2018-06-17T20:06:05.392Z,16.40
2018-06-17T20:08:34.692Z,16.30
2018-06-17T20:11:03.046Z,16.30
2018-06-17T20:13:31.526Z,16.30
2018-06-17T20:16:00.579Z,16.20
2018-06-17T20:18:29.111Z,16.20
2018-06-17T20:20:57.721Z,16.20
2018-06-17T20:23:26.211Z,16.10
2018-06-17T20:25:55.931Z,16.00
2018-06-17T20:28:24.705Z,16.00
2018-06-17T20:30:53.017Z,16.00
2018-06-17T20:33:26.695Z,15.90
2018-06-17T20:36:00.359Z,15.90
2018-06-17T20:38:34.041Z,15.90
2018-06-17T20:41:07.955Z,15.90
2018-06-17T20:43:41.897Z,15.90
2018-06-17T20:46:10.555Z,15.90
2018-06-17T20:48:40.366Z,15.90
2018-06-17T20:51:10.725Z,16.00
2018-06-17T20:53:40.107Z,16.00
2018-06-17T20:56:10.870Z,16.00
2018-06-17T20:58:39.270Z,16.00
2018-06-17T21:01:07.926Z,16.10
2018-06-17T21:03:36.352Z,16.10
2018-06-17T21:08:37.435Z,16.10
2018-06-17T21:11:05.753Z,16.10
2018-06-17T21:13:34.038Z,16.10
2018-06-17T21:16:02.335Z,16.20
2018-06-17T21:18:35.922Z,16.20
2018-06-17T21:21:09.509Z,16.20
2018-06-17T21:23:43.231Z,16.20
2018-06-17T21:26:16.742Z,16.20
2018-06-17T21:28:45.036Z,16.20
2018-06-17T21:31:13.319Z,16.20
2018-06-17T21:33:41.589Z,16.20
2018-06-17T21:36:09.896Z,16.20
2018-06-17T21:38:38.278Z,16.20
2018-06-17T21:41:06.802Z,16.10
2018-06-17T21:43:35.120Z,16.10
2018-06-17T21:46:03.392Z,16.10
2018-06-17T21:48:31.659Z,16.00
2018-06-17T21:50:59.933Z,15.90
2018-06-17T21:53:28.236Z,15.90
2018-06-17T21:55:56.580Z,15.90
2018-06-17T21:58:30.305Z,15.90
2018-06-17T22:00:58.576Z,15.90
2018-06-17T22:03:26.860Z,15.80
2018-06-17T22:05:55.104Z,15.90
2018-06-17T22:08:28.703Z,15.90
2018-06-17T22:11:02.281Z,15.90
2018-06-17T22:13:35.976Z,15.90
2018-06-17T22:16:09.697Z,15.90
2018-06-17T22:18:38.059Z,15.90
2018-06-17T22:21:06.481Z,15.90
2018-06-17T22:26:03.030Z,16.00
2018-06-17T22:28:31.349Z,16.00
2018-06-17T22:30:59.648Z,16.10
2018-06-17T22:33:27.919Z,16.10
2018-06-17T22:35:56.293Z,16.10
2018-06-17T22:38:24.644Z,16.10
2018-06-17T22:40:52.976Z,16.20
2018-06-17T22:43:21.345Z,16.20
2018-06-17T22:45:49.622Z,16.20
2018-06-17T22:48:17.936Z,16.20
2018-06-17T22:50:46.219Z,16.20
2018-06-17T22:53:25.953Z,16.20
2018-06-17T22:55:54.245Z,16.20
2018-06-17T22:58:27.708Z,16.20
2018-06-17T23:01:01.430Z,16.20
2018-06-17T23:03:35.268Z,16.20
2018-06-17T23:06:09.085Z,16.20
2018-06-17T23:08:42.557Z,16.20
2018-06-17T23:11:10.829Z,16.20
2018-06-17T23:13:39.144Z,16.10
2018-06-17T23:16:07.434Z,16.10
2018-06-17T23:18:35.888Z,16.10
2018-06-17T23:21:04.180Z,16.10
2018-06-17T23:23:32.422Z,16.10
2018-06-17T23:26:00.703Z,16.10
2018-06-17T23:28:28.972Z,16.00
2018-06-17T23:30:57.263Z,15.80
2018-06-17T23:33:25.520Z,15.70
2018-06-17T23:35:53.813Z,15.70
2018-06-17T23:38:22.081Z,15.60
2018-06-17T23:40:50.380Z,15.50
2018-06-17T23:43:18.639Z,15.60
2018-06-17T23:45:52.364Z,15.60
2018-06-17T23:48:26.064Z,15.60
2018-06-17T23:53:33.036Z,15.60
2018-06-17T23:56:07.939Z,15.50
2018-06-17T23:58:37.024Z,15.50
